Time;durP1;ratioP1;P1;durP2;ratioP2;P2;SDS_P1;SDS_P2;PMS_P1;PMS_P2;Temp;Humidity;BMP_temperature;BMP_pressure;BME280_temperature;BME280_humidity;BME280_pressure;Samples;Min_cycle;Max_cycle;Signal;HPM_P1;HPM_P2
2020/12/17 00:00:34;;;;;;;9.65;6.47;;;9.40;99.90;;;;;;4991263;28;20038;-79
2020/12/17 00:03:00;;;;;;;9.77;6.35;;;9.10;99.90;;;;;;4987207;28;20081;-78
2020/12/17 00:05:25;;;;;;;7.97;5.95;;;9.10;99.90;;;;;;5006586;28;20394;-78
2020/12/17 00:07:51;;;;;;;9.18;6.35;;;9.00;99.90;;;;;;4995895;28;20124;-79
2020/12/17 00:10:17;;;;;;;9.35;6.18;;;9.00;99.90;;;;;;4986868;28;20038;-78
2020/12/17 00:12:45;;;;;;;11.40;7.03;;;9.00;99.90;;;;;;4987968;28;20122;-77
2020/12/17 00:15:13;;;;;;;11.57;6.55;;;8.90;99.90;;;;;;4997890;28;20092;-78
2020/12/17 00:17:50;;;;;;;11.32;6.53;;;8.90;99.90;;;;;;4999019;28;20065;-78
2020/12/17 00:20:19;;;;;;;8.55;5.80;;;8.90;99.90;;;;;;4993547;28;20038;-79
2020/12/17 00:22:45;;;;;;;9.13;5.82;;;8.90;99.90;;;;;;4990066;28;20077;-78
2020/12/17 00:25:13;;;;;;;10.50;6.65;;;9.00;99.90;;;;;;4991757;28;20058;-79
2020/12/17 00:27:42;;;;;;;10.00;6.13;;;8.90;99.90;;;;;;4986655;28;20039;-80
2020/12/17 00:30:11;;;;;;;9.52;5.93;;;9.30;99.90;;;;;;5002009;28;20046;-78
2020/12/17 00:32:37;;;;;;;9.00;5.50;;;9.10;99.90;;;;;;4988467;28;20026;-77
2020/12/17 00:35:04;;;;;;;8.75;5.60;;;9.00;99.90;;;;;;4991697;28;20431;-78
2020/12/17 00:37:31;;;;;;;9.18;5.95;;;9.00;99.90;;;;;;4987968;28;20030;-79
2020/12/17 00:39:57;;;;;;;9.15;6.05;;;9.00;99.90;;;;;;4985737;28;20045;-78
2020/12/17 00:42:23;;;;;;;9.27;5.47;;;8.90;99.90;;;;;;4993095;28;20045;-78
2020/12/17 00:44:49;;;;;;;8.88;5.65;;;8.90;99.90;;;;;;4989810;28;20073;-80
2020/12/17 00:47:15;;;;;;;7.78;5.28;;;8.90;99.90;;;;;;4984203;28;20125;-78
2020/12/17 00:49:41;;;;;;;8.63;5.10;;;8.90;99.90;;;;;;4999779;28;20122;-78
2020/12/17 00:52:06;;;;;;;7.32;4.90;;;9.10;99.90;;;;;;4998214;28;20030;-78
2020/12/17 00:54:32;;;;;;;7.03;5.00;;;9.00;99.90;;;;;;4980043;28;20042;-79
2020/12/17 00:56:57;;;;;;;7.22;4.72;;;9.00;99.90;;;;;;5000829;28;20072;-80
2020/12/17 00:59:23;;;;;;;8.88;4.80;;;9.10;99.90;;;;;;4994306;28;20050;-79
2020/12/17 01:01:48;;;;;;;9.63;5.13;;;9.10;99.90;;;;;;5017196;28;20041;-78
2020/12/17 01:04:14;;;;;;;7.18;4.90;;;9.00;99.90;;;;;;5001708;28;20396;-78
2020/12/17 01:06:41;;;;;;;7.88;4.63;;;9.00;99.90;;;;;;4996222;28;20149;-79
2020/12/17 01:09:06;;;;;;;8.13;4.60;;;8.90;99.90;;;;;;5008952;28;20081;-79
2020/12/17 01:11:32;;;;;;;8.65;5.00;;;8.90;99.90;;;;;;5012760;28;20519;-78
2020/12/17 01:13:58;;;;;;;7.60;5.25;;;9.00;99.90;;;;;;4999741;28;20056;-78
2020/12/17 01:16:24;;;;;;;6.60;4.35;;;8.80;99.90;;;;;;5006943;28;20030;-77
2020/12/17 01:18:50;;;;;;;8.45;5.03;;;8.90;99.90;;;;;;5007184;28;20042;-80
2020/12/17 01:21:17;;;;;;;7.18;4.45;;;8.90;99.90;;;;;;5004745;28;20041;-79
2020/12/17 01:23:42;;;;;;;7.72;4.43;;;8.80;99.90;;;;;;5006759;28;20042;-78
2020/12/17 01:26:09;;;;;;;6.22;4.43;;;8.90;99.90;;;;;;5003109;28;20984;-79
2020/12/17 01:28:38;;;;;;;6.32;4.47;;;8.90;99.90;;;;;;5011457;28;20045;-77
2020/12/17 01:31:06;;;;;;;7.30;4.22;;;8.90;99.90;;;;;;5007959;28;20025;-77
2020/12/17 01:33:32;;;;;;;8.68;4.65;;;8.80;99.90;;;;;;5017142;28;20630;-78
2020/12/17 01:36:01;;;;;;;6.13;4.10;;;8.90;99.90;;;;;;4997975;28;20044;-79
2020/12/17 01:38:27;;;;;;;8.32;4.63;;;8.90;99.90;;;;;;5013187;28;20046;-79
2020/12/17 01:40:52;;;;;;;7.32;4.32;;;8.90;99.90;;;;;;4996533;28;20042;-81
2020/12/17 01:43:18;;;;;;;8.02;4.57;;;9.10;99.90;;;;;;5001832;28;20026;-80
2020/12/17 01:45:43;;;;;;;5.30;3.90;;;8.90;99.90;;;;;;5011540;28;20053;-78
2020/12/17 01:48:14;;;;;;;6.90;4.40;;;8.80;99.90;;;;;;5011511;28;20383;-78
2020/12/17 01:50:40;;;;;;;;;;;8.90;99.90;;;;;;5013414;28;20501;-79
2020/12/17 01:53:05;;;;;;;7.20;4.25;;;8.80;99.90;;;;;;5006134;28;19938;-79
2020/12/17 01:55:31;;;;;;;6.30;3.92;;;8.80;99.90;;;;;;5003251;28;20550;-78
2020/12/17 01:58:02;;;;;;;7.22;4.15;;;8.80;99.90;;;;;;5010729;28;20392;-79
2020/12/17 02:00:33;;;;;;;6.47;3.83;;;8.80;99.90;;;;;;5006899;28;20089;-79
2020/12/17 02:02:59;;;;;;;6.18;4.10;;;8.80;99.90;;;;;;5021340;28;20585;-79
2020/12/17 02:05:25;;;;;;;6.90;3.70;;;8.90;99.90;;;;;;5005765;28;20117;-78
2020/12/17 02:07:50;;;;;;;8.48;4.50;;;8.80;99.90;;;;;;4998894;28;20034;-78
2020/12/17 02:10:17;;;;;;;7.97;4.38;;;8.80;99.90;;;;;;5000290;28;20100;-78
2020/12/17 02:12:48;;;;;;;8.20;4.43;;;8.80;99.90;;;;;;5004952;28;20044;-78
2020/12/17 02:15:14;;;;;;;9.50;4.32;;;8.80;99.90;;;;;;5004405;28;20044;-79
2020/12/17 02:17:40;;;;;;;7.30;3.90;;;8.80;99.90;;;;;;5010373;28;20068;-79
2020/12/17 02:20:08;;;;;;;6.50;3.92;;;8.80;99.90;;;;;;4999026;28;20046;-79
2020/12/17 02:22:34;;;;;;;8.00;4.30;;;8.80;99.90;;;;;;4991276;28;20042;-81
2020/12/17 02:25:01;;;;;;;7.45;3.55;;;8.70;99.90;;;;;;5006114;28;20543;-79
2020/12/17 02:27:27;;;;;;;5.82;3.53;;;8.70;99.90;;;;;;5008111;28;20084;-79
2020/12/17 02:29:53;;;;;;;6.47;3.60;;;8.70;99.90;;;;;;5009509;28;20045;-78
2020/12/17 02:32:19;;;;;;;7.57;3.72;;;8.70;99.90;;;;;;5007562;28;20376;-78
2020/12/17 02:34:44;;;;;;;6.00;3.55;;;8.70;99.90;;;;;;5006531;28;20083;-80
2020/12/17 02:37:10;;;;;;;6.55;4.07;;;8.70;99.90;;;;;;4998831;28;20042;-80
2020/12/17 02:39:36;;;;;;;6.55;3.53;;;8.70;99.90;;;;;;4979504;28;20046;-79
2020/12/17 02:42:03;;;;;;;8.43;4.40;;;8.70;99.90;;;;;;5012428;28;20501;-79
2020/12/17 02:44:29;;;;;;;6.13;3.72;;;8.70;99.90;;;;;;5010654;28;20069;-80
2020/12/17 02:46:54;;;;;;;7.35;4.78;;;8.70;99.90;;;;;;4998841;28;20037;-79
2020/12/17 02:49:20;;;;;;;7.45;4.25;;;8.80;99.90;;;;;;4984287;28;20049;-81
2020/12/17 02:51:46;;;;;;;6.53;3.92;;;8.80;99.90;;;;;;5001988;28;20026;-80
2020/12/17 02:54:11;;;;;;;8.02;3.95;;;8.70;99.90;;;;;;5000827;28;20038;-79
2020/12/17 02:56:37;;;;;;;5.82;3.88;;;8.70;99.90;;;;;;5003652;28;20121;-79
2020/12/17 02:59:03;;;;;;;6.75;3.83;;;8.70;99.90;;;;;;5002274;28;20042;-79
2020/12/17 03:01:29;;;;;;;6.10;3.40;;;8.70;99.90;;;;;;5005406;28;20530;-79
2020/12/17 03:03:54;;;;;;;7.25;4.15;;;8.80;99.90;;;;;;5009366;28;20116;-81
2020/12/17 03:06:20;;;;;;;7.10;3.22;;;8.70;99.90;;;;;;5005116;28;20496;-79
2020/12/17 03:08:47;;;;;;;6.22;3.40;;;8.70;99.90;;;;;;5003001;28;20049;-78
2020/12/17 03:11:12;;;;;;;6.20;3.60;;;8.70;99.90;;;;;;5002524;28;20042;-79
2020/12/17 03:13:38;;;;;;;5.13;3.60;;;8.70;99.90;;;;;;5004102;28;20602;-79
2020/12/17 03:16:03;;;;;;;5.78;3.47;;;8.70;99.90;;;;;;5007846;28;20030;-81
2020/12/17 03:18:29;;;;;;;8.38;4.00;;;8.60;99.90;;;;;;5005912;28;20080;-79
2020/12/17 03:20:55;;;;;;;7.32;3.70;;;8.60;99.90;;;;;;5006924;28;20525;-78
2020/12/17 03:23:21;;;;;;;9.20;3.60;;;8.60;99.90;;;;;;5007432;28;20044;-78
2020/12/17 03:25:46;;;;;;;9.10;3.78;;;8.70;99.90;;;;;;5006884;28;20030;-80
2020/12/17 03:28:12;;;;;;;7.47;3.35;;;9.30;99.90;;;;;;4992950;28;20107;-79
2020/12/17 03:30:38;;;;;;;6.65;3.70;;;8.60;99.90;;;;;;5007343;28;20407;-78
2020/12/17 03:33:04;;;;;;;6.25;3.42;;;8.60;99.90;;;;;;5002297;28;20074;-79
2020/12/17 03:35:30;;;;;;;7.20;3.50;;;8.60;99.90;;;;;;5009604;28;20037;-78
2020/12/17 03:37:59;;;;;;;6.28;3.85;;;8.60;99.90;;;;;;4986723;28;20042;-77
2020/12/17 03:40:26;;;;;;;6.13;3.92;;;8.60;99.90;;;;;;5003588;28;20034;-78
2020/12/17 03:42:52;;;;;;;7.75;3.60;;;8.60;99.90;;;;;;5005336;28;20048;-78
2020/12/17 03:45:18;;;;;;;5.22;3.50;;;8.70;99.90;;;;;;5002041;28;20038;-78
2020/12/17 03:47:44;;;;;;;5.25;3.50;;;8.60;99.90;;;;;;5005820;28;20431;-79
2020/12/17 03:50:10;;;;;;;6.72;3.42;;;8.60;99.90;;;;;;5003022;28;20069;-78
2020/12/17 03:52:35;;;;;;;7.32;3.47;;;8.60;99.90;;;;;;4983714;28;20144;-79
2020/12/17 03:55:02;;;;;;;5.30;3.35;;;8.50;99.90;;;;;;5009574;28;20042;-80
2020/12/17 03:57:27;;;;;;;6.90;3.38;;;8.50;99.90;;;;;;5006262;28;20103;-78
2020/12/17 03:59:53;;;;;;;5.38;3.50;;;8.50;99.90;;;;;;5004489;28;20069;-79
2020/12/17 04:02:19;;;;;;;5.63;3.55;;;8.50;99.90;;;;;;5009083;28;20063;-79
2020/12/17 04:04:46;;;;;;;7.50;3.97;;;8.50;99.90;;;;;;4997627;28;20050;-79
2020/12/17 04:07:13;;;;;;;8.48;4.05;;;8.50;99.90;;;;;;5001375;28;20575;-78
2020/12/17 04:09:39;;;;;;;7.18;3.83;;;8.50;99.90;;;;;;5000608;28;20050;-78
2020/12/17 04:12:05;;;;;;;7.20;3.80;;;8.40;99.90;;;;;;5005246;28;20050;-78
2020/12/17 04:14:31;;;;;;;6.22;3.75;;;8.40;99.90;;;;;;5004434;28;20084;-79
2020/12/17 04:16:56;;;;;;;7.45;3.65;;;8.40;99.90;;;;;;4985565;28;20044;-78
2020/12/17 04:19:22;;;;;;;7.60;3.88;;;8.40;99.90;;;;;;4986145;28;20041;-78
2020/12/17 04:21:47;;;;;;;5.85;3.60;;;8.40;99.90;;;;;;5006798;28;20480;-80
2020/12/17 04:24:13;;;;;;;9.18;3.75;;;8.40;99.90;;;;;;5006480;28;20621;-80
2020/12/17 04:26:39;;;;;;;5.88;3.40;;;8.40;99.90;;;;;;4996910;28;20065;-80
2020/12/17 04:29:05;;;;;;;6.47;3.53;;;8.40;99.90;;;;;;5001682;28;20042;-80
2020/12/17 04:31:31;;;;;;;7.00;3.90;;;8.40;99.90;;;;;;4979387;28;20542;-79
2020/12/17 04:33:57;;;;;;;7.13;4.03;;;8.40;99.90;;;;;;5002430;28;20045;-78
2020/12/17 04:36:23;;;;;;;6.60;3.97;;;8.40;99.90;;;;;;5006668;28;20099;-77
2020/12/17 04:38:49;;;;;;;6.47;4.03;;;8.40;99.90;;;;;;5011973;28;20025;-79
2020/12/17 04:41:17;;;;;;;6.70;3.55;;;8.40;99.90;;;;;;4992954;28;20038;-78
2020/12/17 04:43:43;;;;;;;12.20;3.70;;;8.40;99.90;;;;;;5014998;28;20494;-78
2020/12/17 04:46:14;;;;;;;7.68;3.90;;;8.40;99.90;;;;;;5009849;28;20145;-80
2020/12/17 04:48:42;;;;;;;7.57;3.97;;;8.40;99.90;;;;;;5010095;28;20029;-79
2020/12/17 04:51:08;;;;;;;8.77;3.63;;;8.50;99.90;;;;;;5008486;28;20045;-79
2020/12/17 04:53:36;;;;;;;5.80;3.35;;;8.50;99.90;;;;;;5003513;28;20076;-80
2020/12/17 04:56:02;;;;;;;8.43;3.88;;;8.60;99.90;;;;;;5005847;28;20042;-77
2020/12/17 04:58:31;;;;;;;10.23;3.80;;;8.50;99.90;;;;;;5009565;28;20106;-79
2020/12/17 05:00:58;;;;;;;6.18;3.20;;;8.60;99.90;;;;;;5004727;28;20125;-77
2020/12/17 05:03:23;;;;;;;6.47;3.60;;;8.70;99.90;;;;;;5006923;28;20045;-80
2020/12/17 05:05:53;;;;;;;11.27;3.85;;;8.70;99.90;;;;;;5006032;28;20231;-78
2020/12/17 05:08:21;;;;;;;6.60;3.72;;;8.70;99.90;;;;;;5010282;28;20045;-78
2020/12/17 05:10:50;;;;;;;8.30;3.42;;;8.80;99.90;;;;;;5000174;28;20543;-77
2020/12/17 05:13:16;;;;;;;11.07;3.90;;;8.80;99.90;;;;;;5004080;28;20064;-77
2020/12/17 05:15:43;;;;;;;9.10;4.18;;;8.80;99.90;;;;;;5003911;28;20035;-78
2020/12/17 05:18:08;;;;;;;6.13;3.45;;;8.80;99.90;;;;;;5007519;28;20033;-78
2020/12/17 05:20:44;;;;;;;6.47;3.60;;;8.90;99.90;;;;;;5008666;28;20034;-79
2020/12/17 05:23:10;;;;;;;8.75;3.50;;;8.90;99.90;;;;;;5009277;28;20049;-79
2020/12/17 05:25:38;;;;;;;5.57;3.50;;;9.00;99.90;;;;;;5002535;28;20034;-79
2020/12/17 05:28:04;;;;;;;9.80;4.13;;;8.90;99.90;;;;;;5005743;28;20053;-78
2020/12/17 05:30:34;;;;;;;6.10;3.72;;;8.90;99.90;;;;;;5006741;28;20085;-78
2020/12/17 05:33:01;;;;;;;7.97;4.07;;;8.90;99.90;;;;;;5003297;28;20046;-77
2020/12/17 05:35:38;;;;;;;6.38;3.55;;;8.90;99.90;;;;;;5011766;28;20045;-79
2020/12/17 05:38:07;;;;;;;7.75;4.00;;;9.00;99.90;;;;;;5011570;28;20068;-78
2020/12/17 05:40:40;;;;;;;6.07;3.72;;;9.00;99.90;;;;;;5010469;28;20030;-79
2020/12/17 05:43:06;;;;;;;8.02;4.18;;;9.00;99.90;;;;;;5003040;28;20060;-78
2020/12/17 05:45:34;;;;;;;9.00;3.97;;;9.00;99.90;;;;;;5008026;28;20041;-79
2020/12/17 05:48:11;;;;;;;9.70;3.78;;;9.00;99.90;;;;;;5007506;28;20141;-79
2020/12/17 05:50:49;;;;;;;11.13;4.45;;;9.10;99.90;;;;;;4999132;28;20046;-80
2020/12/17 05:53:16;;;;;;;6.72;3.53;;;9.00;99.90;;;;;;5010922;28;20061;-78
2020/12/17 05:55:42;;;;;;;6.38;4.00;;;9.00;99.90;;;;;;5018834;28;20042;-78
2020/12/17 05:58:12;;;;;;;8.02;3.83;;;9.00;99.90;;;;;;5004777;28;20432;-79
2020/12/17 06:00:38;;;;;;;7.93;3.97;;;9.00;99.90;;;;;;4997790;28;20362;-78
2020/12/17 06:03:09;;;;;;;7.57;4.18;;;8.90;99.90;;;;;;5001357;28;20030;-81
2020/12/17 06:05:44;;;;;;;9.10;4.13;;;8.90;99.90;;;;;;5006284;28;20044;-79
2020/12/17 06:08:32;;;;;;;10.98;3.42;;;8.90;99.90;;;;;;5002484;28;20545;-78
2020/12/17 06:11:03;;;;;;;7.50;3.85;;;8.90;99.90;;;;;;5007414;28;20675;-78
2020/12/17 06:13:31;;;;;;;;;;;8.90;99.90;;;;;;5005966;28;20573;-79
2020/12/17 06:16:02;;;;;;;9.10;4.25;;;9.00;99.90;;;;;;5002937;28;20282;-80
2020/12/17 06:18:35;;;;;;;7.68;4.28;;;8.90;99.90;;;;;;5005071;28;20038;-80
2020/12/17 06:21:00;;;;;;;8.35;3.92;;;9.00;99.90;;;;;;5003304;28;20053;-80
2020/12/17 06:23:28;;;;;;;9.27;4.43;;;9.10;99.90;;;;;;4993094;28;20038;-78
2020/12/17 06:25:57;;;;;;;8.35;4.10;;;9.10;99.90;;;;;;5014989;28;20038;-79
2020/12/17 06:28:43;;;;;;;10.95;4.13;;;9.10;99.90;;;;;;5007883;28;20054;-79
2020/12/17 06:31:14;;;;;;;9.15;4.38;;;9.10;99.90;;;;;;5009211;28;20034;-79
2020/12/17 06:33:41;;;;;;;;;;;9.10;99.90;;;;;;5010773;28;20621;-79
2020/12/17 06:36:18;;;;;;;7.50;4.05;;;9.10;99.90;;;;;;5026171;28;19917;-79
2020/12/17 06:38:45;;;;;;;9.90;4.50;;;9.20;99.90;;;;;;5007734;28;20041;-80
2020/12/17 06:41:19;;;;;;;11.40;4.35;;;9.20;99.90;;;;;;5001562;28;20602;-79
2020/12/17 06:43:45;;;;;;;9.18;4.13;;;9.20;99.90;;;;;;5000350;28;20034;-79
2020/12/17 06:46:34;;;;;;;10.23;4.50;;;9.20;99.90;;;;;;5006204;28;20446;-78
2020/12/17 06:49:00;;;;;;;10.25;4.40;;;9.30;99.90;;;;;;5001822;28;20061;-79
2020/12/17 06:51:30;;;;;;;10.27;4.50;;;10.00;99.90;;;;;;4999891;28;20034;-78
2020/12/17 06:53:56;;;;;;;10.27;4.60;;;9.30;99.90;;;;;;4987622;28;20038;-77
2020/12/17 06:56:22;;;;;;;7.97;4.55;;;9.30;99.90;;;;;;4996157;28;20038;-77
2020/12/17 06:58:48;;;;;;;8.45;4.35;;;9.30;99.90;;;;;;4985657;28;20045;-77
2020/12/17 07:01:26;;;;;;;8.43;4.85;;;9.30;99.90;;;;;;4978108;28;20042;-79
2020/12/17 07:03:52;;;;;;;6.25;3.88;;;9.50;99.90;;;;;;4997792;28;20061;-77
2020/12/17 07:06:18;;;;;;;9.57;5.20;;;9.30;99.90;;;;;;4996717;28;20026;-78
2020/12/17 07:08:51;;;;;;;8.88;4.18;;;9.40;99.90;;;;;;4997899;28;20045;-77
2020/12/17 07:11:40;;;;;;;7.35;4.28;;;9.40;99.90;;;;;;5005628;28;20022;-79
2020/12/17 07:14:11;;;;;;;12.27;4.47;;;9.40;99.90;;;;;;4997987;28;20034;-78
2020/12/17 07:16:37;;;;;;;7.63;4.90;;;9.40;99.90;;;;;;5007499;28;20026;-78
2020/12/17 07:19:16;;;;;;;8.23;4.72;;;9.40;99.90;;;;;;5000471;28;20478;-77
2020/12/17 07:21:42;;;;;;;8.90;4.28;;;9.70;99.90;;;;;;4999756;28;20815;-78
2020/12/17 07:24:20;;;;;;;10.00;4.85;;;9.70;99.90;;;;;;5004761;28;20136;-78
2020/12/17 07:26:45;;;;;;;7.47;4.60;;;9.60;99.90;;;;;;5004333;28;20038;-79
2020/12/17 07:29:11;;;;;;;9.35;4.47;;;9.60;99.90;;;;;;4990824;28;21759;-77
2020/12/17 07:31:36;;;;;;;9.30;4.90;;;9.90;99.90;;;;;;4987320;28;20108;-76
2020/12/17 07:34:15;;;;;;;12.95;5.05;;;9.70;99.90;;;;;;5006764;28;20403;-80
2020/12/17 07:36:47;;;;;;;14.75;5.20;;;9.80;99.90;;;;;;5020792;28;20030;-78
2020/12/17 07:39:13;;;;;;;9.70;5.18;;;9.80;99.90;;;;;;5005236;28;20396;-79
2020/12/17 07:41:39;;;;;;;9.38;4.93;;;9.80;99.90;;;;;;5007909;28;20048;-78
2020/12/17 07:44:05;;;;;;;9.63;5.40;;;9.80;99.90;;;;;;5003410;28;20038;-77
2020/12/17 07:46:39;;;;;;;8.25;5.35;;;9.80;99.90;;;;;;5005186;28;20042;-78
2020/12/17 07:49:30;;;;;;;12.80;5.40;;;9.80;99.90;;;;;;4999968;28;20092;-80
2020/12/17 07:51:56;;;;;;;;;;;9.80;99.90;;;;;;5005654;28;20018;-79
2020/12/17 07:54:21;;;;;;;12.60;5.55;;;9.70;99.90;;;;;;5004658;28;20298;-78
2020/12/17 07:56:59;;;;;;;10.13;5.50;;;9.80;99.90;;;;;;5012421;28;20041;-79
2020/12/17 07:59:25;;;;;;;11.93;5.40;;;9.80;99.90;;;;;;5000089;28;20042;-78
2020/12/17 08:02:04;;;;;;;12.65;6.22;;;9.80;99.90;;;;;;5001681;28;20041;-79
2020/12/17 08:04:30;;;;;;;10.68;5.60;;;9.80;99.90;;;;;;5009680;28;20045;-78
2020/12/17 08:06:56;;;;;;;8.95;6.13;;;9.90;99.90;;;;;;5005196;28;20049;-79
2020/12/17 08:09:23;;;;;;;13.48;5.38;;;9.80;99.90;;;;;;5002737;28;20085;-80
2020/12/17 08:11:56;;;;;;;10.82;5.07;;;9.80;99.90;;;;;;5008039;28;20694;-78
2020/12/17 08:14:23;;;;;;;12.70;6.10;;;9.80;99.90;;;;;;5002044;28;20064;-78
2020/12/17 08:16:49;;;;;;;13.00;5.47;;;9.80;99.90;;;;;;4999424;28;20061;-80
2020/12/17 08:19:14;;;;;;;10.07;5.53;;;9.80;99.90;;;;;;5003793;28;20102;-79
2020/12/17 08:21:42;;;;;;;9.88;5.72;;;9.70;99.90;;;;;;4998435;28;20034;-79
2020/12/17 08:24:11;;;;;;;10.10;5.40;;;10.10;99.90;;;;;;5001445;28;20026;-80
2020/12/17 08:26:37;;;;;;;10.00;5.90;;;9.80;99.90;;;;;;5004022;28;20034;-79
2020/12/17 08:29:03;;;;;;;14.38;5.90;;;9.80;99.90;;;;;;4997463;28;20089;-81
2020/12/17 08:31:29;;;;;;;12.63;6.38;;;9.70;99.90;;;;;;5008247;28;20034;-81
2020/12/17 08:34:00;;;;;;;14.00;6.90;;;9.70;99.90;;;;;;4995821;28;20039;-80
2020/12/17 08:36:34;;;;;;;9.98;6.07;;;9.70;99.90;;;;;;5004138;28;20038;-79
2020/12/17 08:39:10;;;;;;;9.60;6.22;;;9.70;99.90;;;;;;4994562;28;20507;-78
2020/12/17 08:41:46;;;;;;;9.63;6.28;;;9.60;99.90;;;;;;4986837;28;20069;-79
2020/12/17 08:44:13;;;;;;;13.07;7.55;;;9.60;99.90;;;;;;4999951;28;20064;-79
2020/12/17 08:46:53;;;;;;;14.55;7.75;;;9.60;99.90;;;;;;5005172;28;20046;-79
2020/12/17 08:49:22;;;;;;;11.68;6.65;;;9.70;99.90;;;;;;5002981;28;20037;-79
2020/12/17 08:51:48;;;;;;;9.23;6.10;;;9.70;99.90;;;;;;5015176;28;20034;-80
2020/12/17 08:54:36;;;;;;;9.50;6.50;;;9.70;99.90;;;;;;5005263;28;20554;-80
2020/12/17 08:57:10;;;;;;;10.63;5.97;;;9.70;99.90;;;;;;5013434;28;20038;-79
2020/12/17 08:59:37;;;;;;;11.38;6.07;;;9.80;99.90;;;;;;5001109;28;20399;-79
2020/12/17 09:02:03;;;;;;;9.60;6.38;;;9.90;99.90;;;;;;5002865;28;20462;-79
2020/12/17 09:04:29;;;;;;;11.20;6.50;;;9.70;99.90;;;;;;4997209;28;20030;-77
2020/12/17 09:06:57;;;;;;;8.25;5.60;;;9.70;99.90;;;;;;4982808;28;20073;-79
2020/12/17 09:09:25;;;;;;;9.50;5.55;;;9.70;99.90;;;;;;4999486;28;20042;-80
2020/12/17 09:11:52;;;;;;;12.57;5.78;;;9.70;99.90;;;;;;5003752;28;20062;-80
2020/12/17 09:14:21;;;;;;;9.88;5.45;;;9.80;99.90;;;;;;5005506;28;20122;-79
2020/12/17 09:16:49;;;;;;;11.70;5.05;;;9.80;99.90;;;;;;5000672;28;20056;-78
2020/12/17 09:19:15;;;;;;;8.20;5.20;;;10.40;99.90;;;;;;5002359;28;20033;-79
2020/12/17 09:22:00;;;;;;;12.52;5.30;;;10.00;99.90;;;;;;5007363;28;20030;-78
2020/12/17 09:24:54;;;;;;;8.95;4.90;;;10.40;99.90;;;;;;5005905;28;20046;-79
2020/12/17 09:27:21;;;;;;;8.98;4.65;;;10.00;99.90;;;;;;5023676;28;20034;-79
2020/12/17 09:30:08;;;;;;;9.05;4.68;;;10.10;99.90;;;;;;5012029;28;20606;-79
2020/12/17 09:32:40;;;;;;;6.75;4.25;;;10.10;99.90;;;;;;4998934;28;20483;-77
2020/12/17 09:35:10;;;;;;;7.15;4.00;;;10.10;99.90;;;;;;4995492;28;20042;-79
2020/12/17 09:37:37;;;;;;;9.98;5.80;;;10.30;99.90;;;;;;5003098;28;20029;-78
2020/12/17 09:40:06;;;;;;;11.88;4.72;;;10.20;99.90;;;;;;5007435;28;20037;-78
2020/12/17 09:42:31;;;;;;;10.57;4.90;;;10.20;99.90;;;;;;5007186;28;20042;-78
2020/12/17 09:44:57;;;;;;;7.75;4.70;;;10.10;99.90;;;;;;5010249;28;20629;-78
2020/12/17 09:47:33;;;;;;;9.95;5.03;;;10.20;99.90;;;;;;5005497;28;20038;-78
2020/12/17 09:50:11;;;;;;;8.98;5.00;;;10.20;99.90;;;;;;5000337;28;20499;-77
2020/12/17 09:52:37;;;;;;;10.70;4.28;;;10.20;99.90;;;;;;5009894;28;20034;-78
2020/12/17 09:55:03;;;;;;;7.80;4.40;;;10.20;99.90;;;;;;4983043;28;20064;-78
2020/12/17 09:57:38;;;;;;;6.15;4.50;;;10.30;99.90;;;;;;5002565;28;20368;-77
2020/12/17 10:00:09;;;;;;;8.25;5.07;;;10.30;99.90;;;;;;4993273;28;20034;-76
2020/12/17 10:02:35;;;;;;;7.38;4.00;;;10.80;99.90;;;;;;5014298;28;20050;-79
2020/12/17 10:05:01;;;;;;;7.38;3.95;;;10.40;99.90;;;;;;4998434;28;20042;-78
2020/12/17 10:07:27;;;;;;;8.02;3.55;;;10.60;99.90;;;;;;5006857;28;20614;-79
2020/12/17 10:09:52;;;;;;;6.25;3.53;;;10.70;99.90;;;;;;5025267;28;20137;-78
2020/12/17 10:12:18;;;;;;;6.60;3.83;;;10.60;99.90;;;;;;5007320;28;20113;-78
2020/12/17 10:14:44;;;;;;;5.53;3.53;;;10.60;99.90;;;;;;5003832;28;20058;-77
2020/12/17 10:17:09;;;;;;;5.13;3.50;;;10.50;99.90;;;;;;5009855;28;20034;-77
2020/12/17 10:19:35;;;;;;;6.68;3.35;;;10.50;99.90;;;;;;5003606;28;20044;-78
2020/12/17 10:22:01;;;;;;;6.40;3.45;;;10.60;99.90;;;;;;5008955;28;20177;-78
2020/12/17 10:24:26;;;;;;;9.68;4.70;;;10.40;99.90;;;;;;5008926;28;20054;-76
2020/12/17 10:26:52;;;;;;;7.00;3.78;;;10.90;99.90;;;;;;5003386;28;20042;-79
2020/12/17 10:29:18;;;;;;;4.43;3.05;;;10.50;99.90;;;;;;4997722;28;20041;-77
2020/12/17 10:31:47;;;;;;;5.97;3.00;;;10.90;99.90;;;;;;5007760;28;20018;-78
2020/12/17 10:34:14;;;;;;;5.30;3.00;;;10.50;99.90;;;;;;5010634;28;20022;-78
2020/12/17 10:36:40;;;;;;;7.75;3.60;;;10.40;99.90;;;;;;5005681;28;20045;-78
2020/12/17 10:39:07;;;;;;;9.40;3.97;;;10.30;99.90;;;;;;5006401;28;20037;-79
2020/12/17 10:41:33;;;;;;;5.25;3.45;;;10.30;99.90;;;;;;5003150;28;20057;-77
2020/12/17 10:43:59;;;;;;;6.75;3.20;;;10.30;99.90;;;;;;5002990;28;20034;-78
2020/12/17 10:46:25;;;;;;;6.43;3.65;;;10.20;99.90;;;;;;5001904;28;20046;-79
2020/12/17 10:48:51;;;;;;;6.25;3.35;;;10.30;99.90;;;;;;5004655;28;20111;-76
2020/12/17 10:51:17;;;;;;;6.38;3.33;;;10.30;99.90;;;;;;5012376;28;20033;-76
2020/12/17 10:53:43;;;;;;;5.72;3.35;;;10.30;99.90;;;;;;5006061;28;20133;-77
2020/12/17 10:56:09;;;;;;;6.40;3.80;;;10.40;99.90;;;;;;5014113;28;20065;-77
2020/12/17 10:58:36;;;;;;;7.32;4.18;;;10.40;99.90;;;;;;5004936;28;20034;-77
2020/12/17 11:01:02;;;;;;;5.03;3.33;;;10.50;99.90;;;;;;5001489;28;20360;-78
2020/12/17 11:03:28;;;;;;;6.57;3.33;;;10.50;99.90;;;;;;5020748;28;20124;-77
2020/12/17 11:05:56;;;;;;;10.15;3.83;;;10.30;99.90;;;;;;5002615;28;20513;-76
2020/12/17 11:08:22;;;;;;;4.75;3.20;;;10.50;99.90;;;;;;5003984;28;20475;-77
2020/12/17 11:10:49;;;;;;;5.63;3.33;;;12.00;99.90;;;;;;5004412;28;20049;-77
2020/12/17 11:13:15;;;;;;;4.88;3.10;;;10.60;99.90;;;;;;5006719;28;20038;-77
2020/12/17 11:15:41;;;;;;;4.75;3.25;;;10.60;99.90;;;;;;5007338;28;20056;-77
2020/12/17 11:18:06;;;;;;;5.38;3.20;;;10.70;99.90;;;;;;4996801;28;20084;-76
2020/12/17 11:20:32;;;;;;;6.03;3.45;;;10.80;99.90;;;;;;5006217;28;20030;-79
2020/12/17 11:22:58;;;;;;;7.28;3.42;;;10.90;99.90;;;;;;4995868;28;20050;-78
2020/12/17 11:25:23;;;;;;;6.68;3.17;;;12.10;99.90;;;;;;4999932;28;20069;-77
2020/12/17 11:27:50;;;;;;;5.35;2.75;;;11.00;99.90;;;;;;4995070;28;20723;-79
2020/12/17 11:30:15;;;;;;;6.07;2.58;;;11.00;99.90;;;;;;4979906;28;20038;-78
2020/12/17 11:32:41;;;;;;;6.47;2.90;;;11.10;99.90;;;;;;5001496;28;20067;-77
2020/12/17 11:35:07;;;;;;;6.88;2.67;;;11.00;99.90;;;;;;5005180;28;20041;-78
2020/12/17 11:37:37;;;;;;;5.55;2.80;;;11.10;99.90;;;;;;5007008;28;20022;-79
2020/12/17 11:40:04;;;;;;;6.60;3.53;;;11.00;99.90;;;;;;4998821;28;20045;-78
2020/12/17 11:42:30;;;;;;;6.72;3.33;;;11.20;99.90;;;;;;5006339;28;20046;-76
2020/12/17 11:44:55;;;;;;;4.55;2.40;;;11.80;99.90;;;;;;5019826;28;20046;-78
2020/12/17 11:47:22;;;;;;;4.80;2.45;;;11.50;99.90;;;;;;4999210;28;20053;-76
2020/12/17 11:49:47;;;;;;;4.32;2.38;;;11.50;99.30;;;;;;5000279;28;20038;-79
2020/12/17 11:52:15;;;;;;;5.43;2.78;;;11.60;99.40;;;;;;4968996;28;20042;-79
2020/12/17 11:54:41;;;;;;;4.07;2.45;;;11.40;99.40;;;;;;5003348;28;20042;-78
2020/12/17 11:57:07;;;;;;;5.97;2.20;;;11.60;99.40;;;;;;5006151;28;20043;-79
2020/12/17 11:59:34;;;;;;;4.40;2.35;;;11.50;98.80;;;;;;4984781;28;20046;-79
2020/12/17 12:02:00;;;;;;;4.82;2.28;;;11.50;98.90;;;;;;5024529;28;20069;-82
2020/12/17 12:04:27;;;;;;;3.47;1.98;;;11.60;98.70;;;;;;5010373;28;20132;-82
2020/12/17 12:06:53;;;;;;;6.63;2.10;;;13.10;99.40;;;;;;4990394;28;20033;-79
2020/12/17 12:09:19;;;;;;;4.40;2.03;;;11.50;99.10;;;;;;5012788;28;20131;-80
2020/12/17 12:11:46;;;;;;;5.03;2.45;;;12.10;98.90;;;;;;5008425;28;20049;-83
2020/12/17 12:14:12;;;;;;;5.13;2.20;;;11.50;98.80;;;;;;5014679;28;20403;-82
2020/12/17 12:16:38;;;;;;;5.00;2.38;;;11.50;98.70;;;;;;5006914;28;20042;-78
2020/12/17 12:19:04;;;;;;;4.28;2.35;;;11.40;99.10;;;;;;5012481;28;20061;-79
2020/12/17 12:21:30;;;;;;;5.03;1.98;;;11.30;98.80;;;;;;5010353;28;20046;-79
2020/12/17 12:23:58;;;;;;;3.67;2.00;;;11.30;98.90;;;;;;5007695;28;20042;-78
2020/12/17 12:26:24;;;;;;;4.55;2.20;;;11.30;99.10;;;;;;5001604;28;20038;-78
2020/12/17 12:28:50;;;;;;;5.68;2.00;;;11.30;99.00;;;;;;5003468;28;20435;-78
2020/12/17 12:31:18;;;;;;;3.47;2.22;;;11.30;99.00;;;;;;5002309;28;20053;-82
2020/12/17 12:33:44;;;;;;;4.13;2.45;;;11.20;99.20;;;;;;5004629;28;20034;-79
2020/12/17 12:36:12;;;;;;;3.83;2.28;;;11.20;99.40;;;;;;5000981;28;20061;-79
2020/12/17 12:38:38;;;;;;;3.80;2.17;;;11.20;99.10;;;;;;4984325;28;20030;-80
2020/12/17 12:41:04;;;;;;;4.28;2.08;;;11.60;99.20;;;;;;4991594;28;20050;-78
2020/12/17 12:43:30;;;;;;;4.88;2.10;;;11.40;99.10;;;;;;5000693;28;20066;-78
2020/12/17 12:45:56;;;;;;;3.70;2.13;;;11.30;98.90;;;;;;4981724;28;20038;-78
2020/12/17 12:48:22;;;;;;;3.70;2.13;;;11.40;98.80;;;;;;5006858;28;20038;-77
2020/12/17 12:51:02;;;;;;;4.32;2.35;;;11.40;98.80;;;;;;4992892;28;20118;-80
2020/12/17 12:53:31;;;;;;;4.95;2.30;;;11.50;98.80;;;;;;5025338;28;20042;-81
2020/12/17 12:55:56;;;;;;;2.80;1.70;;;12.90;98.90;;;;;;4996087;28;20038;-78